Time;durP1;ratioP1;P1;durP2;ratioP2;P2;SDS_P1;SDS_P2;PMS_P1;PMS_P2;Temp;Humidity;BMP_temperature;BMP_pressure;BME280_temperature;BME280_humidity;BME280_pressure;Samples;Min_cycle;Max_cycle;Signal;HPM_P1;HPM_P2
2023/04/09 00:00:18;;;;;;;0.20;0.20;;;;;;;;;;5054586;28;20379;-70
2023/04/09 00:02:45;;;;;;;0.20;0.20;;;;;;;;;;5078092;28;20278;-71
2023/04/09 00:05:11;;;;;;;0.20;0.20;;;;;;;;;;5053734;28;20230;-71
2023/04/09 00:07:37;;;;;;;0.13;0.13;;;;;;;;;;5078538;28;20263;-71
2023/04/09 00:10:04;;;;;;;0.10;0.10;;;;;;;;;;5063738;28;20231;-71
2023/04/09 00:12:31;;;;;;;0.30;0.30;;;;;;;;;;5068659;28;20249;-71
2023/04/09 00:14:59;;;;;;;0.20;0.20;;;;;;;;;;5063812;28;20391;-72
2023/04/09 00:17:25;;;;;;;0.20;0.20;;;;;;;;;;5068823;28;20246;-72
2023/04/09 00:19:51;;;;;;;0.20;0.20;;;;;;;;;;5063754;28;20214;-72
2023/04/09 00:22:18;;;;;;;4.53;4.23;;;;;;;;;;5068648;28;20313;-71
2023/04/09 00:24:44;;;;;;;0.70;0.70;;;;;;;;;;5063543;28;20278;-72
2023/04/09 00:27:11;;;;;;;0.20;0.20;;;;;;;;;;5068664;28;20289;-71
2023/04/09 00:29:37;;;;;;;0.20;0.20;;;;;;;;;;5063518;28;20210;-72
2023/04/09 00:32:05;;;;;;;0.60;0.60;;;;;;;;;;5068121;28;20257;-72
2023/04/09 00:34:31;;;;;;;0.20;0.20;;;;;;;;;;5063867;28;20239;-71
2023/04/09 00:36:58;;;;;;;0.20;0.20;;;;;;;;;;5067341;28;20254;-71
2023/04/09 00:39:25;;;;;;;0.20;0.20;;;;;;;;;;5064658;28;20243;-71
2023/04/09 00:41:56;;;;;;;0.27;0.27;;;;;;;;;;5066274;28;20235;-71
2023/04/09 00:44:22;;;;;;;0.20;0.20;;;;;;;;;;5064876;28;20210;-71
2023/04/09 00:46:48;;;;;;;0.20;0.20;;;;;;;;;;5065975;28;20298;-71
2023/04/09 00:49:16;;;;;;;0.20;0.20;;;;;;;;;;5065718;28;20455;-71
2023/04/09 00:51:43;;;;;;;0.20;0.20;;;;;;;;;;5065289;28;20254;-72
2023/04/09 00:54:10;;;;;;;3.53;3.40;;;;;;;;;;5066031;28;20214;-71
2023/04/09 00:56:36;;;;;;;0.20;0.20;;;;;;;;;;5064483;28;20427;-71
2023/04/09 00:59:03;;;;;;;0.10;0.10;;;;;;;;;;5066737;28;20235;-71
2023/04/09 01:01:29;;;;;;;0.20;0.20;;;;;;;;;;5062956;28;20265;-71
2023/04/09 01:03:56;;;;;;;0.20;0.20;;;;;;;;;;5068390;28;20258;-71
2023/04/09 01:06:27;;;;;;;0.20;0.20;;;;;;;;;;5062220;28;20263;-71
2023/04/09 01:08:58;;;;;;;0.20;0.20;;;;;;;;;;5068651;28;20253;-71
2023/04/09 01:11:31;;;;;;;0.20;0.20;;;;;;;;;;5062419;28;20297;-72
2023/04/09 01:14:01;;;;;;;0.20;0.20;;;;;;;;;;5067884;28;20275;-71
2023/04/09 01:16:29;;;;;;;0.40;0.40;;;;;;;;;;5062672;28;20246;-71
2023/04/09 01:18:57;;;;;;;0.30;0.30;;;;;;;;;;5070494;28;20234;-71
2023/04/09 01:21:31;;;;;;;0.13;0.13;;;;;;;;;;5065993;28;20239;-71
2023/04/09 01:23:59;;;;;;;0.20;0.20;;;;;;;;;;5071218;28;20234;-72
2023/04/09 01:26:35;;;;;;;0.20;0.20;;;;;;;;;;5066305;28;20250;-71
2023/04/09 01:29:03;;;;;;;0.20;0.20;;;;;;;;;;5070494;28;20206;-71
2023/04/09 01:31:30;;;;;;;0.20;0.20;;;;;;;;;;5066616;28;20243;-71
2023/04/09 01:33:57;;;;;;;0.20;0.20;;;;;;;;;;5071198;28;20434;-71
2023/04/09 01:36:24;;;;;;;0.20;0.20;;;;;;;;;;5065839;28;20267;-71
2023/04/09 01:38:51;;;;;;;0.13;0.13;;;;;;;;;;5071637;28;20214;-71
2023/04/09 01:41:20;;;;;;;0.20;0.20;;;;;;;;;;5064802;28;20243;-71
2023/04/09 01:43:46;;;;;;;0.40;0.40;;;;;;;;;;5072028;28;20227;-71
2023/04/09 01:46:15;;;;;;;0.20;0.20;;;;;;;;;;5064093;28;20242;-71
2023/04/09 01:48:42;;;;;;;0.17;0.17;;;;;;;;;;5072460;28;20246;-72
2023/04/09 01:51:09;;;;;;;0.20;0.20;;;;;;;;;;5063687;28;20520;-71
2023/04/09 01:53:36;;;;;;;0.20;0.20;;;;;;;;;;5073196;28;20271;-71
2023/04/09 01:56:02;;;;;;;0.10;0.10;;;;;;;;;;5062658;28;20313;-71
2023/04/09 01:58:28;;;;;;;0.20;0.20;;;;;;;;;;5074003;28;20253;-71
2023/04/09 02:00:56;;;;;;;0.10;0.10;;;;;;;;;;5061550;28;20307;-71
2023/04/09 02:03:25;;;;;;;0.20;0.20;;;;;;;;;;5074653;28;20298;-71
2023/04/09 02:05:53;;;;;;;0.20;0.20;;;;;;;;;;5061024;28;20256;-71
2023/04/09 02:08:21;;;;;;;0.10;0.10;;;;;;;;;;5074951;28;20202;-71
2023/04/09 02:10:52;;;;;;;0.10;0.10;;;;;;;;;;5060308;28;20246;-71
2023/04/09 02:13:19;;;;;;;0.43;0.43;;;;;;;;;;5074987;28;20198;-71
2023/04/09 02:15:46;;;;;;;6.87;6.50;;;;;;;;;;5060149;28;20494;-71
2023/04/09 02:18:22;;;;;;;0.20;0.20;;;;;;;;;;5075669;28;20277;-71
2023/04/09 02:20:50;;;;;;;0.20;0.20;;;;;;;;;;5060380;28;20481;-71
2023/04/09 02:23:17;;;;;;;0.20;0.20;;;;;;;;;;5075122;28;20411;-71
2023/04/09 02:25:43;;;;;;;0.20;0.20;;;;;;;;;;5059217;28;20306;-71
2023/04/09 02:28:10;;;;;;;0.20;0.20;;;;;;;;;;5076018;28;20214;-71
2023/04/09 02:30:36;;;;;;;0.30;0.30;;;;;;;;;;5058504;28;20239;-71
2023/04/09 02:33:02;;;;;;;0.20;0.20;;;;;;;;;;5076784;28;20226;-71
2023/04/09 02:35:29;;;;;;;0.20;0.20;;;;;;;;;;5057822;28;20325;-71
2023/04/09 02:37:56;;;;;;;0.20;0.20;;;;;;;;;;5077442;28;20262;-71
2023/04/09 02:40:23;;;;;;;0.20;0.20;;;;;;;;;;5056925;28;20274;-71
2023/04/09 02:42:50;;;;;;;0.17;0.17;;;;;;;;;;5078119;28;20256;-71
2023/04/09 02:45:16;;;;;;;0.20;0.20;;;;;;;;;;5055601;28;20218;-71
2023/04/09 02:47:42;;;;;;;0.20;0.20;;;;;;;;;;5078966;28;20262;-71
2023/04/09 02:50:09;;;;;;;0.10;0.10;;;;;;;;;;5054859;28;20278;-70
2023/04/09 02:52:35;;;;;;;0.20;0.20;;;;;;;;;;5079766;28;20230;-71
2023/04/09 02:55:03;;;;;;;0.20;0.20;;;;;;;;;;5064863;28;20210;-71
2023/04/09 02:57:32;;;;;;;0.30;0.30;;;;;;;;;;5069884;28;20312;-71
2023/04/09 02:59:58;;;;;;;0.20;0.20;;;;;;;;;;5064715;28;20249;-71
2023/04/09 03:02:24;;;;;;;0.20;0.20;;;;;;;;;;5069733;28;20589;-71
2023/04/09 03:04:51;;;;;;;0.20;0.20;;;;;;;;;;5064737;28;20274;-71
2023/04/09 03:07:18;;;;;;;0.37;0.37;;;;;;;;;;5069592;28;20245;-71
2023/04/09 03:09:44;;;;;;;0.20;0.20;;;;;;;;;;5064685;28;20207;-71
2023/04/09 03:12:12;;;;;;;0.20;0.20;;;;;;;;;;5069587;28;20261;-71
2023/04/09 03:14:38;;;;;;;0.20;0.20;;;;;;;;;;5064413;28;20281;-70
2023/04/09 03:17:05;;;;;;;0.27;0.27;;;;;;;;;;5069125;28;20325;-71
2023/04/09 03:19:31;;;;;;;0.20;0.20;;;;;;;;;;5064649;28;20272;-71
2023/04/09 03:21:57;;;;;;;2.00;2.00;;;;;;;;;;5067959;28;20248;-71
2023/04/09 03:24:24;;;;;;;0.20;0.20;;;;;;;;;;5065335;28;20207;-72
2023/04/09 03:26:50;;;;;;;0.20;0.20;;;;;;;;;;5067108;28;20443;-71
2023/04/09 03:29:18;;;;;;;0.20;0.20;;;;;;;;;;5066103;28;20458;-71
2023/04/09 03:31:44;;;;;;;0.20;0.20;;;;;;;;;;5066275;28;20639;-71
2023/04/09 03:34:11;;;;;;;0.20;0.20;;;;;;;;;;5066774;28;20282;-71
2023/04/09 03:36:37;;;;;;;4.70;4.03;;;;;;;;;;5065172;28;20249;-71
2023/04/09 03:39:03;;;;;;;0.20;0.20;;;;;;;;;;5067893;28;20237;-71
2023/04/09 03:41:30;;;;;;;0.20;0.20;;;;;;;;;;5063695;28;20249;-71
2023/04/09 03:43:56;;;;;;;0.20;0.20;;;;;;;;;;5068535;28;20277;-71
2023/04/09 03:46:24;;;;;;;0.30;0.30;;;;;;;;;;5063219;28;20251;-71
2023/04/09 03:48:50;;;;;;;0.20;0.20;;;;;;;;;;5069224;28;20272;-71
2023/04/09 03:51:17;;;;;;;2.37;2.30;;;;;;;;;;5062520;28;20496;-71
2023/04/09 03:53:44;;;;;;;0.27;0.27;;;;;;;;;;5069870;28;20203;-71
2023/04/09 03:56:10;;;;;;;0.20;0.20;;;;;;;;;;5061393;28;20291;-71
2023/04/09 03:58:37;;;;;;;0.20;0.20;;;;;;;;;;5070923;28;20531;-71
2023/04/09 04:01:03;;;;;;;0.20;0.20;;;;;;;;;;5060360;28;20291;-71
2023/04/09 04:03:31;;;;;;;0.20;0.20;;;;;;;;;;5071475;28;20297;-71
2023/04/09 04:06:00;;;;;;;0.20;0.20;;;;;;;;;;5059423;28;20544;-71
2023/04/09 04:08:26;;;;;;;0.20;0.20;;;;;;;;;;5072448;28;20451;-71
2023/04/09 04:10:53;;;;;;;0.30;0.30;;;;;;;;;;5059112;28;20248;-71
2023/04/09 04:13:19;;;;;;;0.20;0.20;;;;;;;;;;5073396;28;20235;-71
2023/04/09 04:15:45;;;;;;;0.20;0.20;;;;;;;;;;5058053;28;20254;-71
2023/04/09 04:18:12;;;;;;;0.30;0.30;;;;;;;;;;5073964;28;20241;-71
2023/04/09 04:20:39;;;;;;;0.20;0.20;;;;;;;;;;5056609;28;20265;-71
2023/04/09 04:23:06;;;;;;;0.20;0.20;;;;;;;;;;5075001;28;20297;-71
2023/04/09 04:25:32;;;;;;;0.20;0.20;;;;;;;;;;5056155;28;20416;-71
2023/04/09 04:27:59;;;;;;;0.20;0.20;;;;;;;;;;5075775;28;20207;-71
2023/04/09 04:30:25;;;;;;;0.20;0.20;;;;;;;;;;5055217;28;20236;-71
2023/04/09 04:32:51;;;;;;;0.20;0.20;;;;;;;;;;5077115;28;20382;-71
2023/04/09 04:35:18;;;;;;;0.20;0.20;;;;;;;;;;5054231;28;20206;-71
2023/04/09 04:37:49;;;;;;;0.20;0.20;;;;;;;;;;5077671;28;20262;-71
2023/04/09 04:40:15;;;;;;;0.50;0.50;;;;;;;;;;5053791;28;20286;-71
2023/04/09 04:42:42;;;;;;;0.20;0.20;;;;;;;;;;5078179;28;20551;-71
2023/04/09 04:45:09;;;;;;;0.20;0.20;;;;;;;;;;5063128;28;20374;-70
2023/04/09 04:47:35;;;;;;;0.20;0.20;;;;;;;;;;5051541;28;20556;-71
2023/04/09 04:50:01;;;;;;;0.20;0.20;;;;;;;;;;5063446;28;20214;-71
2023/04/09 04:52:28;;;;;;;0.30;0.30;;;;;;;;;;5070251;28;20264;-71
2023/04/09 04:54:55;;;;;;;0.20;0.20;;;;;;;;;;5067149;28;20206;-71
2023/04/09 04:57:22;;;;;;;0.20;0.20;;;;;;;;;;5071958;28;20312;-71
2023/04/09 04:59:48;;;;;;;1.23;1.23;;;;;;;;;;5066992;28;20272;-71
2023/04/09 05:02:15;;;;;;;0.20;0.20;;;;;;;;;;5072045;28;20249;-71
2023/04/09 05:04:41;;;;;;;0.20;0.20;;;;;;;;;;5066875;28;20203;-71
2023/04/09 05:07:08;;;;;;;0.30;0.30;;;;;;;;;;5071936;28;20249;-71
2023/04/09 05:09:34;;;;;;;0.20;0.20;;;;;;;;;;5066940;28;20281;-71
2023/04/09 05:12:02;;;;;;;0.23;0.23;;;;;;;;;;5070974;28;20260;-71
2023/04/09 05:14:28;;;;;;;0.20;0.20;;;;;;;;;;5067180;28;20222;-71
2023/04/09 05:16:55;;;;;;;0.20;0.20;;;;;;;;;;5070134;28;20301;-71
2023/04/09 05:19:21;;;;;;;0.30;0.30;;;;;;;;;;5068209;28;20234;-71
2023/04/09 05:21:47;;;;;;;0.20;0.20;;;;;;;;;;5069095;28;20495;-71
2023/04/09 05:24:14;;;;;;;2.53;2.43;;;;;;;;;;5068827;28;20229;-71
2023/04/09 05:26:40;;;;;;;0.40;0.40;;;;;;;;;;5068036;28;20308;-71
2023/04/09 05:29:08;;;;;;;0.20;0.20;;;;;;;;;;5069879;28;20241;-71
2023/04/09 05:31:34;;;;;;;0.20;0.20;;;;;;;;;;5067278;28;20348;-71
2023/04/09 05:34:01;;;;;;;5.07;4.63;;;;;;;;;;5070332;28;20202;-71
2023/04/09 05:36:27;;;;;;;4.27;4.10;;;;;;;;;;5066123;28;20256;-71
2023/04/09 05:38:53;;;;;;;0.20;0.20;;;;;;;;;;5071381;28;20363;-71
2023/04/09 05:41:20;;;;;;;0.20;0.20;;;;;;;;;;5065167;28;20279;-70
2023/04/09 05:43:46;;;;;;;0.70;0.70;;;;;;;;;;5072203;28;20259;-71
2023/04/09 05:46:14;;;;;;;0.20;0.20;;;;;;;;;;5063865;28;20247;-71
2023/04/09 05:48:40;;;;;;;0.30;0.30;;;;;;;;;;5072992;28;20452;-71
2023/04/09 05:51:08;;;;;;;0.30;0.30;;;;;;;;;;5063079;28;20241;-71
2023/04/09 05:53:34;;;;;;;0.20;0.20;;;;;;;;;;5073626;28;20202;-71
2023/04/09 05:56:00;;;;;;;0.20;0.20;;;;;;;;;;5062209;28;20267;-71
2023/04/09 05:58:28;;;;;;;0.20;0.20;;;;;;;;;;5074351;28;20486;-71
2023/04/09 06:00:55;;;;;;;0.20;0.20;;;;;;;;;;5061383;28;20703;-71
2023/04/09 06:03:23;;;;;;;0.20;0.20;;;;;;;;;;5074239;28;20230;-71
2023/04/09 06:05:49;;;;;;;0.60;0.60;;;;;;;;;;5059004;28;20256;-72
2023/04/09 06:08:16;;;;;;;0.20;0.20;;;;;;;;;;5075301;28;20568;-72
2023/04/09 06:10:43;;;;;;;0.20;0.20;;;;;;;;;;5059600;28;20508;-71
2023/04/09 06:13:11;;;;;;;0.20;0.20;;;;;;;;;;5075977;28;20203;-70
2023/04/09 06:15:46;;;;;;;1.27;1.27;;;;;;;;;;5058347;28;20287;-71
2023/04/09 06:18:22;;;;;;;0.20;0.20;;;;;;;;;;5076262;28;20198;-72
2023/04/09 06:20:50;;;;;;;0.20;0.20;;;;;;;;;;5059636;28;20439;-70
2023/04/09 06:23:17;;;;;;;0.20;0.20;;;;;;;;;;5075636;28;20576;-71
2023/04/09 06:25:43;;;;;;;0.20;0.20;;;;;;;;;;5059580;28;20238;-71
2023/04/09 06:28:10;;;;;;;0.20;0.20;;;;;;;;;;5076101;28;20587;-71
2023/04/09 06:30:36;;;;;;;0.20;0.20;;;;;;;;;;5058883;28;20250;-71
2023/04/09 06:33:03;;;;;;;0.20;0.20;;;;;;;;;;5076998;28;20476;-71
2023/04/09 06:35:29;;;;;;;0.20;0.20;;;;;;;;;;5057910;28;20250;-72
2023/04/09 06:37:57;;;;;;;0.20;0.20;;;;;;;;;;5077698;28;20206;-71
2023/04/09 06:40:24;;;;;;;0.20;0.20;;;;;;;;;;5057022;28;20282;-71
2023/04/09 06:42:50;;;;;;;0.20;0.20;;;;;;;;;;5077977;28;20292;-71
2023/04/09 06:45:16;;;;;;;0.20;0.20;;;;;;;;;;5055759;28;20281;-70
2023/04/09 06:47:43;;;;;;;0.20;0.20;;;;;;;;;;5078896;28;20275;-71
2023/04/09 06:50:09;;;;;;;0.20;0.20;;;;;;;;;;5054452;28;20304;-68
2023/04/09 06:52:36;;;;;;;0.20;0.20;;;;;;;;;;5079980;28;20570;-69
2023/04/09 06:55:04;;;;;;;0.20;0.20;;;;;;;;;;5064938;28;20526;-70
2023/04/09 06:57:30;;;;;;;0.20;0.20;;;;;;;;;;5071246;28;20441;-69
2023/04/09 06:59:56;;;;;;;0.20;0.20;;;;;;;;;;5065192;28;20214;-69
2023/04/09 07:02:23;;;;;;;0.17;0.17;;;;;;;;;;5069710;28;20248;-70
2023/04/09 07:04:49;;;;;;;0.13;0.13;;;;;;;;;;5064519;28;20228;-70
2023/04/09 07:07:16;;;;;;;0.20;0.20;;;;;;;;;;5069698;28;20245;-69
2023/04/09 07:09:42;;;;;;;0.10;0.10;;;;;;;;;;5064651;28;20246;-69
2023/04/09 07:12:10;;;;;;;0.20;0.20;;;;;;;;;;5069670;28;20273;-69
2023/04/09 07:14:36;;;;;;;0.13;0.13;;;;;;;;;;5064216;28;20377;-70
2023/04/09 07:17:03;;;;;;;0.10;0.10;;;;;;;;;;5068118;28;20302;-70
2023/04/09 07:19:29;;;;;;;0.20;0.20;;;;;;;;;;5064749;28;20239;-70
2023/04/09 07:21:56;;;;;;;0.20;0.20;;;;;;;;;;5067833;28;20392;-70
2023/04/09 07:24:22;;;;;;;0.20;0.20;;;;;;;;;;5065799;28;20295;-70
2023/04/09 07:26:49;;;;;;;0.17;0.17;;;;;;;;;;5066947;28;20239;-70
2023/04/09 07:29:19;;;;;;;0.20;0.20;;;;;;;;;;5066396;28;20204;-71
2023/04/09 07:31:46;;;;;;;0.20;0.20;;;;;;;;;;5066434;28;20570;-70
2023/04/09 07:34:12;;;;;;;3.97;3.60;;;;;;;;;;5066758;28;20207;-70
2023/04/09 07:36:40;;;;;;;6.83;2.10;;;;;;;;;;5065327;28;20258;-71
2023/04/09 07:39:06;;;;;;;0.13;0.13;;;;;;;;;;5067324;28;20219;-69
2023/04/09 07:41:32;;;;;;;0.33;0.33;;;;;;;;;;5064668;28;20239;-71
2023/04/09 07:43:59;;;;;;;0.20;0.20;;;;;;;;;;5068244;28;20296;-70
2023/04/09 07:46:27;;;;;;;0.20;0.20;;;;;;;;;;5063416;28;20239;-71
2023/04/09 07:48:53;;;;;;;0.17;0.17;;;;;;;;;;5068943;28;20234;-70
2023/04/09 07:51:19;;;;;;;0.27;0.27;;;;;;;;;;5062844;28;20258;-71
2023/04/09 07:53:46;;;;;;;0.20;0.20;;;;;;;;;;5069707;28;20219;-70
2023/04/09 07:56:12;;;;;;;0.20;0.20;;;;;;;;;;5061721;28;20353;-69
2023/04/09 07:58:38;;;;;;;0.20;0.20;;;;;;;;;;5070719;28;20245;-70
2023/04/09 08:01:05;;;;;;;0.20;0.20;;;;;;;;;;5060835;28;20255;-71
2023/04/09 08:03:34;;;;;;;0.13;0.13;;;;;;;;;;5071554;28;20251;-71
2023/04/09 08:06:01;;;;;;;0.20;0.20;;;;;;;;;;5060363;28;20311;-71
2023/04/09 08:08:27;;;;;;;0.20;0.20;;;;;;;;;;5072034;28;20278;-71
2023/04/09 08:10:54;;;;;;;0.20;0.20;;;;;;;;;;5059496;28;20241;-71
2023/04/09 08:13:22;;;;;;;0.20;0.20;;;;;;;;;;5072490;28;20197;-71
2023/04/09 08:15:49;;;;;;;0.20;0.20;;;;;;;;;;5058389;28;20251;-71
2023/04/09 08:18:15;;;;;;;0.10;0.10;;;;;;;;;;5073864;28;20275;-72
2023/04/09 08:20:44;;;;;;;0.10;0.10;;;;;;;;;;5057777;28;20241;-71
2023/04/09 08:23:10;;;;;;;3.70;3.60;;;;;;;;;;5073924;28;20271;-71
2023/04/09 08:25:36;;;;;;;0.10;0.10;;;;;;;;;;5057238;28;20266;-71
2023/04/09 08:28:03;;;;;;;0.20;0.20;;;;;;;;;;5078153;28;20210;-71
2023/04/09 08:30:29;;;;;;;0.10;0.10;;;;;;;;;;5059898;28;20251;-71
2023/04/09 08:32:56;;;;;;;0.10;0.10;;;;;;;;;;5080212;28;20228;-71
2023/04/09 08:35:22;;;;;;;11.70;11.03;;;;;;;;;;5059187;28;20203;-71
2023/04/09 08:37:50;;;;;;;0.10;0.10;;;;;;;;;;5080906;28;20269;-71
2023/04/09 08:40:16;;;;;;;0.10;0.10;;;;;;;;;;5058457;28;20207;-71
2023/04/09 08:42:44;;;;;;;0.20;0.20;;;;;;;;;;5081596;28;20418;-71
2023/04/09 08:45:12;;;;;;;0.10;0.10;;;;;;;;;;5056968;28;20230;-72
2023/04/09 08:47:40;;;;;;;0.10;0.10;;;;;;;;;;5081789;28;20265;-71
2023/04/09 08:50:07;;;;;;;0.10;0.10;;;;;;;;;;5067329;28;20204;-72
2023/04/09 08:52:34;;;;;;;0.10;0.10;;;;;;;;;;5055590;28;20231;-61
2023/04/09 08:55:02;;;;;;;2.60;2.33;;;;;;;;;;5066862;28;20229;-59
2023/04/09 08:57:28;;;;;;;0.10;0.10;;;;;;;;;;5072236;28;20504;-59
2023/04/09 08:59:54;;;;;;;0.10;0.10;;;;;;;;;;5067215;28;20227;-59
2023/04/09 09:02:22;;;;;;;0.13;0.13;;;;;;;;;;5072128;28;20512;-59
2023/04/09 09:04:50;;;;;;;0.10;0.10;;;;;;;;;;5066935;28;20228;-60
2023/04/09 09:07:16;;;;;;;5.93;3.03;;;;;;;;;;5071927;28;20261;-69
2023/04/09 09:09:53;;;;;;;0.10;0.10;;;;;;;;;;5066488;28;20248;-65
2023/04/09 09:12:34;;;;;;;0.13;0.13;;;;;;;;;;5071852;28;20244;-65
2023/04/09 09:15:00;;;;;;;0.10;0.10;;;;;;;;;;5066908;28;20273;-65
2023/04/09 09:17:26;;;;;;;0.10;0.10;;;;;;;;;;5071812;28;20250;-63
2023/04/09 09:19:53;;;;;;;0.10;0.10;;;;;;;;;;5066732;28;20245;-63
2023/04/09 09:22:19;;;;;;;0.10;0.10;;;;;;;;;;5071625;28;20244;-60
2023/04/09 09:24:47;;;;;;;0.10;0.10;;;;;;;;;;5066574;28;20227;-60
2023/04/09 09:27:14;;;;;;;0.10;0.10;;;;;;;;;;5071707;28;20630;-55
2023/04/09 09:29:43;;;;;;;0.10;0.10;;;;;;;;;;5066486;28;20234;-60
2023/04/09 09:32:13;;;;;;;0.10;0.10;;;;;;;;;;5071614;28;20241;-60
2023/04/09 09:34:39;;;;;;;0.10;0.10;;;;;;;;;;5066352;28;20263;-61
2023/04/09 09:37:25;;;;;;;0.10;0.10;;;;;;;;;;5071433;28;20451;-61
2023/04/09 09:39:52;;;;;;;0.00;0.00;;;;;;;;;;5065283;28;20213;-59
2023/04/09 09:42:18;;;;;;;0.00;0.00;;;;;;;;;;5071373;28;20302;-60
2023/04/09 09:44:46;;;;;;;0.10;0.10;;;;;;;;;;5066012;28;20252;-62
2023/04/09 09:47:14;;;;;;;1.05;1.05;;;;;;;;;;5071324;28;20566;-62
2023/04/09 09:49:40;;;;;;;0.10;0.10;;;;;;;;;;5066141;28;20207;-62
2023/04/09 09:52:08;;;;;;;0.10;0.10;;;;;;;;;;5070270;28;20302;-61
2023/04/09 09:54:38;;;;;;;0.68;0.68;;;;;;;;;;5066797;28;20275;-62
2023/04/09 09:57:06;;;;;;;0.10;0.10;;;;;;;;;;5069771;28;20246;-63
2023/04/09 09:59:36;;;;;;;2.28;2.13;;;;;;;;;;5066706;28;20279;-63
2023/04/09 10:02:06;;;;;;;0.08;0.08;;;;;;;;;;5069094;28;20231;-63
2023/04/09 10:04:33;;;;;;;0.00;0.00;;;;;;;;;;5067031;28;20239;-63
2023/04/09 10:07:02;;;;;;;0.10;0.10;;;;;;;;;;5069335;28;20257;-62
2023/04/09 10:09:29;;;;;;;0.00;0.00;;;;;;;;;;5066991;28;20212;-62
2023/04/09 10:11:56;;;;;;;0.85;0.85;;;;;;;;;;5068608;28;20238;-61
2023/04/09 10:14:23;;;;;;;0.00;0.00;;;;;;;;;;5067627;28;20515;-61
2023/04/09 10:16:50;;;;;;;0.10;0.10;;;;;;;;;;5067658;28;20306;-62
2023/04/09 10:19:18;;;;;;;0.10;0.10;;;;;;;;;;5068104;28;20231;-61
2023/04/09 10:21:47;;;;;;;0.60;0.60;;;;;;;;;;5067543;28;20272;-62
2023/04/09 10:24:14;;;;;;;0.10;0.10;;;;;;;;;;5067767;28;20605;-63
2023/04/09 10:26:41;;;;;;;0.10;0.10;;;;;;;;;;5067125;28;20310;-63
2023/04/09 10:29:08;;;;;;;0.00;0.00;;;;;;;;;;5068709;28;20204;-63
2023/04/09 10:31:48;;;;;;;0.00;0.00;;;;;;;;;;5066175;28;20262;-61
2023/04/09 10:34:15;;;;;;;0.63;0.63;;;;;;;;;;5067664;28;20200;-62
2023/04/09 10:36:44;;;;;;;0.10;0.10;;;;;;;;;;5066982;28;20243;-63
2023/04/09 10:39:13;;;;;;;0.03;0.03;;;;;;;;;;5068011;28;20514;-58
2023/04/09 10:41:41;;;;;;;0.10;0.10;;;;;;;;;;5066524;28;20302;-69
2023/04/09 10:44:19;;;;;;;0.00;0.00;;;;;;;;;;5068394;28;20227;-61
2023/04/09 10:46:45;;;;;;;0.10;0.10;;;;;;;;;;5066979;28;20255;-64
2023/04/09 10:49:12;;;;;;;0.00;0.00;;;;;;;;;;5067741;28;20463;-74
2023/04/09 10:51:39;;;;;;;0.00;0.00;;;;;;;;;;5066201;28;20242;-65
2023/04/09 10:54:27;;;;;;;0.10;0.10;;;;;;;;;;5068435;28;20363;-63
2023/04/09 10:57:10;;;;;;;0.00;0.00;;;;;;;;;;5067852;28;20250;-59
2023/04/09 10:59:39;;;;;;;0.00;0.00;;;;;;;;;;5064881;28;20207;-72
2023/04/09 11:02:08;;;;;;;0.10;0.10;;;;;;;;;;5069641;28;20495;-72
2023/04/09 11:04:38;;;;;;;0.10;0.10;;;;;;;;;;5064415;28;20295;-72
2023/04/09 11:07:05;;;;;;;0.00;0.00;;;;;;;;;;5069391;28;20314;-71
2023/04/09 11:09:37;;;;;;;0.00;0.00;;;;;;;;;;5064858;28;20387;-72
2023/04/09 11:12:12;;;;;;;0.10;0.10;;;;;;;;;;5068833;28;20281;-72
2023/04/09 11:14:45;;;;;;;0.00;0.00;;;;;;;;;;5064345;28;20207;-72
2023/04/09 11:17:12;;;;;;;0.00;0.00;;;;;;;;;;5069604;28;20243;-71
2023/04/09 11:19:39;;;;;;;0.10;0.10;;;;;;;;;;5064415;28;20279;-72
2023/04/09 11:22:05;;;;;;;0.03;0.03;;;;;;;;;;5069047;28;20251;-72
2023/04/09 11:24:41;;;;;;;0.00;0.00;;;;;;;;;;5064623;28;20223;-72
2023/04/09 11:27:08;;;;;;;2.03;2.00;;;;;;;;;;5069497;28;20243;-72
2023/04/09 11:29:34;;;;;;;0.00;0.00;;;;;;;;;;5063920;28;20275;-72
2023/04/09 11:32:01;;;;;;;0.10;0.10;;;;;;;;;;5068429;28;20235;-72
2023/04/09 11:34:27;;;;;;;0.00;0.00;;;;;;;;;;5064877;28;20254;-72
2023/04/09 11:36:54;;;;;;;0.10;0.10;;;;;;;;;;5067472;28;20311;-72
2023/04/09 11:39:20;;;;;;;0.00;0.00;;;;;;;;;;5065789;28;20279;-72
2023/04/09 11:41:48;;;;;;;0.00;0.00;;;;;;;;;;5066398;28;20255;-72
2023/04/09 11:44:14;;;;;;;0.00;0.00;;;;;;;;;;5066326;28;20238;-72
2023/04/09 11:46:41;;;;;;;0.20;0.20;;;;;;;;;;5065480;28;20419;-72
2023/04/09 11:49:08;;;;;;;0.10;0.10;;;;;;;;;;5067310;28;20204;-72
2023/04/09 11:51:35;;;;;;;0.00;0.00;;;;;;;;;;5064708;28;20258;-72
2023/04/09 11:54:02;;;;;;;0.00;0.00;;;;;;;;;;5068173;28;20211;-72
2023/04/09 11:56:29;;;;;;;0.00;0.00;;;;;;;;;;5063879;28;20247;-72
2023/04/09 11:58:57;;;;;;;0.00;0.00;;;;;;;;;;5068721;28;20249;-72
2023/04/09 12:01:24;;;;;;;0.00;0.00;;;;;;;;;;5062688;28;20259;-72
2023/04/09 12:03:52;;;;;;;1.17;1.08;;;;;;;;;;5069304;28;20204;-72
2023/04/09 12:06:20;;;;;;;0.00;0.00;;;;;;;;;;5062676;28;20503;-62
2023/04/09 12:08:47;;;;;;;0.00;0.00;;;;;;;;;;5069548;28;20211;-62
2023/04/09 12:11:14;;;;;;;0.00;0.00;;;;;;;;;;5061941;28;20435;-62
2023/04/09 12:13:43;;;;;;;0.00;0.00;;;;;;;;;;5070149;28;20250;-62
2023/04/09 12:16:11;;;;;;;0.00;0.00;;;;;;;;;;5060959;28;20465;-62
2023/04/09 12:18:37;;;;;;;0.00;0.00;;;;;;;;;;5063232;28;20208;-72
2023/04/09 12:21:04;;;;;;;0.00;0.00;;;;;;;;;;5059932;28;20246;-71
2023/04/09 12:23:30;;;;;;;0.00;0.00;;;;;;;;;;5072522;28;20211;-72
2023/04/09 12:25:59;;;;;;;0.00;0.00;;;;;;;;;;5059343;28;20246;-70
2023/04/09 12:28:26;;;;;;;0.00;0.00;;;;;;;;;;5073060;28;20219;-72
2023/04/09 12:30:52;;;;;;;0.00;0.00;;;;;;;;;;5058405;28;20262;-71
2023/04/09 12:33:20;;;;;;;0.00;0.00;;;;;;;;;;5074849;28;20199;-76
2023/04/09 12:35:47;;;;;;;0.00;0.00;;;;;;;;;;5058809;28;20585;-77
2023/04/09 12:38:13;;;;;;;0.00;0.00;;;;;;;;;;5073999;28;20298;-77
2023/04/09 12:40:40;;;;;;;0.00;0.00;;;;;;;;;;5059148;28;20251;-77
2023/04/09 12:43:09;;;;;;;0.10;0.10;;;;;;;;;;5076086;28;20224;-75
2023/04/09 12:45:35;;;;;;;0.85;0.85;;;;;;;;;;5058783;28;20239;-77
2023/04/09 12:48:02;;;;;;;0.00;0.00;;;;;;;;;;5076080;28;20228;-79
2023/04/09 12:50:29;;;;;;;0.00;0.00;;;;;;;;;;5057158;28;20492;-77
2023/04/09 12:52:56;;;;;;;0.00;0.00;;;;;;;;;;5076463;28;20204;-62
2023/04/09 12:55:22;;;;;;;0.00;0.00;;;;;;;;;;5055213;28;20448;-63
2023/04/09 12:57:51;;;;;;;0.00;0.00;;;;;;;;;;5076782;28;20252;-70
2023/04/09 13:00:20;;;;;;;0.00;0.00;;;;;;;;;;5054340;28;20275;-69
2023/04/09 13:02:46;;;;;;;0.00;0.00;;;;;;;;;;5076886;28;20264;-69
2023/04/09 13:05:13;;;;;;;0.00;0.00;;;;;;;;;;5053633;28;20255;-68
2023/04/09 13:07:42;;;;;;;0.00;0.00;;;;;;;;;;5078029;28;20443;-69
2023/04/09 13:10:08;;;;;;;0.00;0.00;;;;;;;;;;5053775;28;20523;-69
2023/04/09 13:12:35;;;;;;;0.00;0.00;;;;;;;;;;5078868;28;20216;-69
2023/04/09 13:15:02;;;;;;;0.00;0.00;;;;;;;;;;5066888;28;20267;-70
2023/04/09 13:17:29;;;;;;;0.00;0.00;;;;;;;;;;5071773;28;20243;-71
2023/04/09 13:19:55;;;;;;;0.00;0.00;;;;;;;;;;5066835;28;20204;-71
2023/04/09 13:22:21;;;;;;;0.00;0.00;;;;;;;;;;5071737;28;20281;-62
2023/04/09 13:24:49;;;;;;;0.00;0.00;;;;;;;;;;5066691;28;20204;-67
2023/04/09 13:27:16;;;;;;;0.68;0.68;;;;;;;;;;5071779;28;20421;-69
2023/04/09 13:29:42;;;;;;;0.00;0.00;;;;;;;;;;5066903;28;20204;-74
2023/04/09 13:32:09;;;;;;;0.00;0.00;;;;;;;;;;5071484;28;20307;-75
2023/04/09 13:34:36;;;;;;;0.00;0.00;;;;;;;;;;5066495;28;20246;-72
2023/04/09 13:37:03;;;;;;;0.00;0.00;;;;;;;;;;5071401;28;20299;-72
2023/04/09 13:39:29;;;;;;;0.00;0.00;;;;;;;;;;5066914;28;20203;-63
2023/04/09 13:41:57;;;;;;;0.10;0.10;;;;;;;;;;5072312;28;20239;-73
2023/04/09 13:44:24;;;;;;;0.00;0.00;;;;;;;;;;5072055;28;20236;-74
2023/04/09 13:46:50;;;;;;;0.00;0.00;;;;;;;;;;5072969;28;20239;-72
2023/04/09 13:49:16;;;;;;;0.00;0.00;;;;;;;;;;5071927;28;20385;-74
2023/04/09 13:51:43;;;;;;;0.00;0.00;;;;;;;;;;5071914;28;20258;-74
2023/04/09 13:54:10;;;;;;;0.00;0.00;;;;;;;;;;5073109;28;20399;-74
2023/04/09 13:56:40;;;;;;;0.00;0.00;;;;;;;;;;5069808;28;20239;-64
2023/04/09 13:59:07;;;;;;;5.40;5.15;;;;;;;;;;5069244;28;20204;-65
2023/04/09 14:01:34;;;;;;;0.08;0.08;;;;;;;;;;5066859;28;20575;-72
2023/04/09 14:04:00;;;;;;;0.00;0.00;;;;;;;;;;5070219;28;20211;-77
2023/04/09 14:06:27;;;;;;;0.10;0.10;;;;;;;;;;5065873;28;20243;-75
2023/04/09 14:08:53;;;;;;;0.00;0.00;;;;;;;;;;5071016;28;20275;-73
2023/04/09 14:11:19;;;;;;;0.00;0.00;;;;;;;;;;5064763;28;20534;-73
2023/04/09 14:13:46;;;;;;;0.00;0.00;;;;;;;;;;5071967;28;20499;-67
2023/04/09 14:16:13;;;;;;;0.10;0.10;;;;;;;;;;5063343;28;20242;-67
2023/04/09 14:18:40;;;;;;;0.00;0.00;;;;;;;;;;5072632;28;20329;-63
2023/04/09 14:21:07;;;;;;;0.00;0.00;;;;;;;;;;5062851;28;20309;-63
2023/04/09 14:23:33;;;;;;;0.10;0.10;;;;;;;;;;5073026;28;20246;-67
2023/04/09 14:26:00;;;;;;;1.55;1.45;;;;;;;;;;5061282;28;20306;-71
2023/04/09 14:28:26;;;;;;;0.10;0.10;;;;;;;;;;5074043;28;20453;-70
2023/04/09 14:30:53;;;;;;;0.00;0.00;;;;;;;;;;5060657;28;20245;-70
2023/04/09 14:33:20;;;;;;;0.10;0.10;;;;;;;;;;5074788;28;20455;-70
2023/04/09 14:35:47;;;;;;;0.03;0.03;;;;;;;;;;5060089;28;20386;-70
2023/04/09 14:38:13;;;;;;;0.00;0.00;;;;;;;;;;5075371;28;20213;-71
2023/04/09 14:40:40;;;;;;;0.10;0.10;;;;;;;;;;5059144;28;20242;-70
2023/04/09 14:43:06;;;;;;;0.10;0.10;;;;;;;;;;5076435;28;20207;-68